sensor_id;sensor_type;location;lat;lon;timestamp;P1;durP1;ratioP1;P2;durP2;ratioP2
43807;SDS011;29438;50.664;10.098;2022-11-15T00:01:45;6.47;;;2.60;;
43807;SDS011;29438;50.664;10.098;2022-11-15T00:04:11;7.22;;;3.10;;
43807;SDS011;29438;50.664;10.098;2022-11-15T00:06:36;6.18;;;2.70;;
43807;SDS011;29438;50.664;10.098;2022-11-15T00:09:02;6.93;;;2.58;;
43807;SDS011;29438;50.664;10.098;2022-11-15T00:11:28;5.88;;;2.58;;
43807;SDS011;29438;50.664;10.098;2022-11-15T00:13:55;6.95;;;3.13;;
43807;SDS011;29438;50.664;10.098;2022-11-15T00:16:21;7.03;;;2.88;;
43807;SDS011;29438;50.664;10.098;2022-11-15T00:18:47;7.13;;;3.05;;
43807;SDS011;29438;50.664;10.098;2022-11-15T00:21:13;8.15;;;3.22;;
43807;SDS011;29438;50.664;10.098;2022-11-15T00:23:40;8.27;;;3.65;;
43807;SDS011;29438;50.664;10.098;2022-11-15T00:26:06;7.47;;;3.45;;
43807;SDS011;29438;50.664;10.098;2022-11-15T00:28:32;9.30;;;3.30;;
43807;SDS011;29438;50.664;10.098;2022-11-15T00:31:01;6.13;;;2.88;;
43807;SDS011;29438;50.664;10.098;2022-11-15T00:33:28;6.00;;;2.75;;
43807;SDS011;29438;50.664;10.098;2022-11-15T00:35:58;5.60;;;2.50;;
43807;SDS011;29438;50.664;10.098;2022-11-15T00:38:35;6.25;;;2.88;;
43807;SDS011;29438;50.664;10.098;2022-11-15T00:41:03;4.82;;;2.30;;
43807;SDS011;29438;50.664;10.098;2022-11-15T00:43:30;7.15;;;2.83;;
43807;SDS011;29438;50.664;10.098;2022-11-15T00:45:56;5.90;;;2.42;;
43807;SDS011;29438;50.664;10.098;2022-11-15T00:48:22;10.30;;;2.65;;
43807;SDS011;29438;50.664;10.098;2022-11-15T00:50:48;6.85;;;2.35;;
43807;SDS011;29438;50.664;10.098;2022-11-15T00:53:14;5.82;;;2.42;;
43807;SDS011;29438;50.664;10.098;2022-11-15T00:55:39;7.28;;;2.60;;
43807;SDS011;29438;50.664;10.098;2022-11-15T00:58:05;5.90;;;2.35;;
43807;SDS011;29438;50.664;10.098;2022-11-15T01:00:31;4.18;;;2.20;;
43807;SDS011;29438;50.664;10.098;2022-11-15T01:02:56;5.55;;;2.33;;
43807;SDS011;29438;50.664;10.098;2022-11-15T01:05:22;4.60;;;2.22;;
43807;SDS011;29438;50.664;10.098;2022-11-15T01:07:51;4.70;;;2.45;;
43807;SDS011;29438;50.664;10.098;2022-11-15T01:10:18;6.85;;;2.45;;
43807;SDS011;29438;50.664;10.098;2022-11-15T01:12:43;4.85;;;2.53;;
43807;SDS011;29438;50.664;10.098;2022-11-15T01:15:09;6.00;;;2.42;;
43807;SDS011;29438;50.664;10.098;2022-11-15T01:17:35;5.72;;;2.72;;
43807;SDS011;29438;50.664;10.098;2022-11-15T01:20:00;6.18;;;2.40;;
43807;SDS011;29438;50.664;10.098;2022-11-15T01:22:26;6.03;;;2.70;;
43807;SDS011;29438;50.664;10.098;2022-11-15T01:24:52;7.72;;;2.60;;
43807;SDS011;29438;50.664;10.098;2022-11-15T01:27:17;5.97;;;2.42;;
43807;SDS011;29438;50.664;10.098;2022-11-15T01:29:43;6.43;;;2.80;;
43807;SDS011;29438;50.664;10.098;2022-11-15T01:32:08;6.97;;;2.22;;
43807;SDS011;29438;50.664;10.098;2022-11-15T01:34:34;7.55;;;2.83;;
43807;SDS011;29438;50.664;10.098;2022-11-15T01:37:00;4.75;;;2.45;;
43807;SDS011;29438;50.664;10.098;2022-11-15T01:39:25;4.55;;;2.60;;
43807;SDS011;29438;50.664;10.098;2022-11-15T01:41:51;6.32;;;2.65;;
43807;SDS011;29438;50.664;10.098;2022-11-15T01:47:15;6.13;;;3.03;;
43807;SDS011;29438;50.664;10.098;2022-11-15T01:49:58;6.75;;;3.30;;
43807;SDS011;29438;50.664;10.098;2022-11-15T01:52:33;6.22;;;2.80;;
43807;SDS011;29438;50.664;10.098;2022-11-15T01:57:34;8.52;;;2.88;;
43807;SDS011;29438;50.664;10.098;2022-11-15T02:00:01;10.05;;;3.13;;
43807;SDS011;29438;50.664;10.098;2022-11-15T02:02:29;7.72;;;3.35;;
43807;SDS011;29438;50.664;10.098;2022-11-15T02:04:55;7.68;;;3.05;;
43807;SDS011;29438;50.664;10.098;2022-11-15T02:07:20;7.63;;;3.33;;
43807;SDS011;29438;50.664;10.098;2022-11-15T02:09:47;6.30;;;3.03;;
43807;SDS011;29438;50.664;10.098;2022-11-15T02:12:15;7.68;;;3.50;;
43807;SDS011;29438;50.664;10.098;2022-11-15T02:14:44;6.28;;;3.35;;
43807;SDS011;29438;50.664;10.098;2022-11-15T02:30:33;8.55;;;4.13;;
43807;SDS011;29438;50.664;10.098;2022-11-15T02:33:09;9.38;;;4.53;;
43807;SDS011;29438;50.664;10.098;2022-11-15T02:41:31;10.32;;;4.43;;
43807;SDS011;29438;50.664;10.098;2022-11-15T02:44:03;9.10;;;3.90;;
43807;SDS011;29438;50.664;10.098;2022-11-15T02:49:20;8.80;;;4.07;;
43807;SDS011;29438;50.664;10.098;2022-11-15T02:51:47;7.45;;;3.25;;
43807;SDS011;29438;50.664;10.098;2022-11-15T02:54:17;7.72;;;4.00;;
43807;SDS011;29438;50.664;10.098;2022-11-15T02:56:56;12.52;;;4.68;;
43807;SDS011;29438;50.664;10.098;2022-11-15T03:07:43;10.07;;;4.68;;
43807;SDS011;29438;50.664;10.098;2022-11-15T03:10:18;11.63;;;4.78;;
43807;SDS011;29438;50.664;10.098;2022-11-15T03:15:44;11.07;;;4.78;;
43807;SDS011;29438;50.664;10.098;2022-11-15T03:18:23;8.60;;;4.03;;
43807;SDS011;29438;50.664;10.098;2022-11-15T03:20:57;9.20;;;4.10;;
43807;SDS011;29438;50.664;10.098;2022-11-15T03:23:27;10.20;;;4.63;;
43807;SDS011;29438;50.664;10.098;2022-11-15T03:25:54;10.10;;;4.53;;
43807;SDS011;29438;50.664;10.098;2022-11-15T03:28:23;10.45;;;4.75;;
43807;SDS011;29438;50.664;10.098;2022-11-15T03:30:52;12.15;;;5.22;;
43807;SDS011;29438;50.664;10.098;2022-11-15T03:33:20;11.50;;;5.03;;
43807;SDS011;29438;50.664;10.098;2022-11-15T03:35:47;11.65;;;4.82;;
43807;SDS011;29438;50.664;10.098;2022-11-15T03:40:39;12.48;;;5.45;;
43807;SDS011;29438;50.664;10.098;2022-11-15T03:43:09;10.80;;;4.93;;
43807;SDS011;29438;50.664;10.098;2022-11-15T03:45:41;12.20;;;5.53;;
43807;SDS011;29438;50.664;10.098;2022-11-15T03:48:13;15.93;;;6.32;;
43807;SDS011;29438;50.664;10.098;2022-11-15T03:50:43;11.65;;;5.43;;
43807;SDS011;29438;50.664;10.098;2022-11-15T03:53:10;12.30;;;5.50;;
43807;SDS011;29438;50.664;10.098;2022-11-15T03:55:37;14.25;;;5.85;;
43807;SDS011;29438;50.664;10.098;2022-11-15T03:58:02;13.77;;;4.97;;
43807;SDS011;29438;50.664;10.098;2022-11-15T04:00:28;12.27;;;5.13;;
43807;SDS011;29438;50.664;10.098;2022-11-15T04:02:54;10.13;;;5.15;;
43807;SDS011;29438;50.664;10.098;2022-11-15T04:05:20;10.82;;;5.00;;
43807;SDS011;29438;50.664;10.098;2022-11-15T04:07:45;10.98;;;5.03;;
43807;SDS011;29438;50.664;10.098;2022-11-15T04:10:11;11.73;;;5.43;;
43807;SDS011;29438;50.664;10.098;2022-11-15T04:12:38;10.65;;;4.82;;
43807;SDS011;29438;50.664;10.098;2022-11-15T04:15:08;12.73;;;5.28;;
43807;SDS011;29438;50.664;10.098;2022-11-15T04:17:39;11.35;;;5.50;;
43807;SDS011;29438;50.664;10.098;2022-11-15T04:20:13;12.98;;;5.32;;
43807;SDS011;29438;50.664;10.098;2022-11-15T04:22:58;13.90;;;6.10;;
43807;SDS011;29438;50.664;10.098;2022-11-15T04:25:43;12.73;;;5.88;;
43807;SDS011;29438;50.664;10.098;2022-11-15T04:28:09;13.70;;;5.68;;
43807;SDS011;29438;50.664;10.098;2022-11-15T04:30:36;13.93;;;6.07;;
43807;SDS011;29438;50.664;10.098;2022-11-15T04:33:02;14.02;;;5.90;;
43807;SDS011;29438;50.664;10.098;2022-11-15T04:35:27;14.93;;;5.72;;
43807;SDS011;29438;50.664;10.098;2022-11-15T04:37:53;12.52;;;5.53;;
43807;SDS011;29438;50.664;10.098;2022-11-15T04:40:21;16.10;;;5.78;;
43807;SDS011;29438;50.664;10.098;2022-11-15T04:42:47;12.27;;;5.45;;
43807;SDS011;29438;50.664;10.098;2022-11-15T04:45:13;12.80;;;5.57;;
43807;SDS011;29438;50.664;10.098;2022-11-15T04:47:38;15.77;;;6.10;;
43807;SDS011;29438;50.664;10.098;2022-11-15T04:50:04;12.38;;;5.57;;
43807;SDS011;29438;50.664;10.098;2022-11-15T04:52:30;12.25;;;5.35;;
43807;SDS011;29438;50.664;10.098;2022-11-15T04:54:55;12.95;;;5.30;;
43807;SDS011;29438;50.664;10.098;2022-11-15T04:57:21;14.40;;;5.70;;
43807;SDS011;29438;50.664;10.098;2022-11-15T04:59:47;13.23;;;5.32;;
43807;SDS011;29438;50.664;10.098;2022-11-15T05:02:12;17.30;;;6.32;;
43807;SDS011;29438;50.664;10.098;2022-11-15T05:04:38;15.85;;;5.53;;
43807;SDS011;29438;50.664;10.098;2022-11-15T05:07:03;13.98;;;5.75;;
43807;SDS011;29438;50.664;10.098;2022-11-15T05:09:29;16.17;;;6.18;;
43807;SDS011;29438;50.664;10.098;2022-11-15T05:11:54;15.00;;;5.63;;
43807;SDS011;29438;50.664;10.098;2022-11-15T05:14:20;13.15;;;5.50;;
43807;SDS011;29438;50.664;10.098;2022-11-15T05:16:46;14.60;;;5.72;;
43807;SDS011;29438;50.664;10.098;2022-11-15T05:19:11;13.32;;;5.95;;
43807;SDS011;29438;50.664;10.098;2022-11-15T05:21:37;16.13;;;6.40;;
43807;SDS011;29438;50.664;10.098;2022-11-15T05:24:03;18.55;;;6.13;;
43807;SDS011;29438;50.664;10.098;2022-11-15T05:26:29;15.57;;;6.05;;
43807;SDS011;29438;50.664;10.098;2022-11-15T05:28:55;12.80;;;5.80;;
43807;SDS011;29438;50.664;10.098;2022-11-15T05:31:22;13.73;;;6.50;;
43807;SDS011;29438;50.664;10.098;2022-11-15T05:33:48;16.08;;;6.43;;
43807;SDS011;29438;50.664;10.098;2022-11-15T05:36:27;16.40;;;6.05;;
43807;SDS011;29438;50.664;10.098;2022-11-15T05:39:03;14.43;;;5.72;;
43807;SDS011;29438;50.664;10.098;2022-11-15T05:41:32;14.82;;;6.43;;
43807;SDS011;29438;50.664;10.098;2022-11-15T05:44:07;16.13;;;6.18;;
43807;SDS011;29438;50.664;10.098;2022-11-15T05:46:34;16.08;;;6.70;;
43807;SDS011;29438;50.664;10.098;2022-11-15T05:49:01;15.38;;;6.75;;
43807;SDS011;29438;50.664;10.098;2022-11-15T05:51:29;17.23;;;6.93;;
43807;SDS011;29438;50.664;10.098;2022-11-15T05:53:56;16.50;;;6.35;;
43807;SDS011;29438;50.664;10.098;2022-11-15T05:56:23;18.67;;;6.70;;
43807;SDS011;29438;50.664;10.098;2022-11-15T05:58:49;17.80;;;6.95;;
43807;SDS011;29438;50.664;10.098;2022-11-15T06:01:14;17.77;;;6.88;;
43807;SDS011;29438;50.664;10.098;2022-11-15T06:03:40;16.90;;;7.32;;
43807;SDS011;29438;50.664;10.098;2022-11-15T06:06:06;16.15;;;6.30;;
43807;SDS011;29438;50.664;10.098;2022-11-15T06:08:32;15.73;;;6.63;;
43807;SDS011;29438;50.664;10.098;2022-11-15T06:11:02;14.82;;;6.25;;
43807;SDS011;29438;50.664;10.098;2022-11-15T06:15:57;20.02;;;6.28;;
43807;SDS011;29438;50.664;10.098;2022-11-15T06:18:22;18.88;;;7.47;;
43807;SDS011;29438;50.664;10.098;2022-11-15T06:20:48;18.63;;;7.65;;
43807;SDS011;29438;50.664;10.098;2022-11-15T06:23:13;20.13;;;7.75;;
43807;SDS011;29438;50.664;10.098;2022-11-15T06:25:39;16.70;;;7.05;;
43807;SDS011;29438;50.664;10.098;2022-11-15T06:28:05;19.08;;;7.25;;
43807;SDS011;29438;50.664;10.098;2022-11-15T06:30:30;22.23;;;8.15;;
43807;SDS011;29438;50.664;10.098;2022-11-15T06:32:59;17.50;;;7.53;;
43807;SDS011;29438;50.664;10.098;2022-11-15T06:35:28;22.23;;;8.32;;
43807;SDS011;29438;50.664;10.098;2022-11-15T06:37:54;20.73;;;7.63;;
43807;SDS011;29438;50.664;10.098;2022-11-15T06:40:20;18.52;;;7.85;;
43807;SDS011;29438;50.664;10.098;2022-11-15T06:42:46;20.60;;;7.55;;
43807;SDS011;29438;50.664;10.098;2022-11-15T06:45:11;18.00;;;7.55;;
43807;SDS011;29438;50.664;10.098;2022-11-15T06:47:44;18.05;;;7.03;;
43807;SDS011;29438;50.664;10.098;2022-11-15T06:50:13;21.60;;;8.02;;
43807;SDS011;29438;50.664;10.098;2022-11-15T06:52:38;19.40;;;6.95;;
43807;SDS011;29438;50.664;10.098;2022-11-15T06:55:04;20.48;;;7.40;;
43807;SDS011;29438;50.664;10.098;2022-11-15T06:57:30;18.45;;;7.15;;
43807;SDS011;29438;50.664;10.098;2022-11-15T06:59:57;19.35;;;6.78;;
43807;SDS011;29438;50.664;10.098;2022-11-15T07:02:22;21.50;;;7.40;;
43807;SDS011;29438;50.664;10.098;2022-11-15T07:04:48;21.65;;;7.68;;
43807;SDS011;29438;50.664;10.098;2022-11-15T07:07:14;19.10;;;7.75;;
43807;SDS011;29438;50.664;10.098;2022-11-15T07:09:39;23.02;;;8.20;;
43807;SDS011;29438;50.664;10.098;2022-11-15T07:12:05;25.40;;;8.25;;
43807;SDS011;29438;50.664;10.098;2022-11-15T07:14:30;21.15;;;8.15;;
43807;SDS011;29438;50.664;10.098;2022-11-15T07:16:56;24.92;;;8.70;;
43807;SDS011;29438;50.664;10.098;2022-11-15T07:19:21;21.45;;;8.23;;
43807;SDS011;29438;50.664;10.098;2022-11-15T07:21:47;27.45;;;9.20;;
43807;SDS011;29438;50.664;10.098;2022-11-15T07:24:13;18.20;;;7.90;;
43807;SDS011;29438;50.664;10.098;2022-11-15T07:26:38;21.52;;;7.65;;
43807;SDS011;29438;50.664;10.098;2022-11-15T07:29:04;18.92;;;8.02;;
43807;SDS011;29438;50.664;10.098;2022-11-15T07:31:29;20.40;;;8.20;;
43807;SDS011;29438;50.664;10.098;2022-11-15T07:33:55;17.20;;;7.32;;
43807;SDS011;29438;50.664;10.098;2022-11-15T07:36:21;16.92;;;7.30;;
43807;SDS011;29438;50.664;10.098;2022-11-15T07:38:46;16.15;;;6.75;;
43807;SDS011;29438;50.664;10.098;2022-11-15T07:41:12;13.23;;;5.38;;
43807;SDS011;29438;50.664;10.098;2022-11-15T07:43:37;10.27;;;5.13;;
43807;SDS011;29438;50.664;10.098;2022-11-15T07:46:04;9.52;;;4.30;;
43807;SDS011;29438;50.664;10.098;2022-11-15T07:48:33;8.82;;;4.03;;
43807;SDS011;29438;50.664;10.098;2022-11-15T07:51:04;7.20;;;3.53;;
43807;SDS011;29438;50.664;10.098;2022-11-15T07:53:31;8.20;;;3.80;;
43807;SDS011;29438;50.664;10.098;2022-11-15T07:55:56;9.02;;;3.83;;
43807;SDS011;29438;50.664;10.098;2022-11-15T07:58:22;8.43;;;3.83;;
43807;SDS011;29438;50.664;10.098;2022-11-15T08:00:47;10.18;;;3.60;;
43807;SDS011;29438;50.664;10.098;2022-11-15T08:03:14;7.45;;;3.30;;
43807;SDS011;29438;50.664;10.098;2022-11-15T08:05:41;7.15;;;3.70;;
43807;SDS011;29438;50.664;10.098;2022-11-15T08:08:08;8.40;;;3.88;;
43807;SDS011;29438;50.664;10.098;2022-11-15T08:10:35;10.70;;;4.10;;
43807;SDS011;29438;50.664;10.098;2022-11-15T08:13:02;12.50;;;5.88;;
43807;SDS011;29438;50.664;10.098;2022-11-15T08:15:30;10.27;;;4.40;;
43807;SDS011;29438;50.664;10.098;2022-11-15T08:17:57;7.55;;;3.58;;
43807;SDS011;29438;50.664;10.098;2022-11-15T08:20:24;11.40;;;4.50;;
43807;SDS011;29438;50.664;10.098;2022-11-15T08:22:51;7.70;;;3.88;;
43807;SDS011;29438;50.664;10.098;2022-11-15T08:25:17;8.50;;;3.40;;
43807;SDS011;29438;50.664;10.098;2022-11-15T08:27:43;6.63;;;3.50;;
43807;SDS011;29438;50.664;10.098;2022-11-15T08:30:09;6.72;;;3.53;;
43807;SDS011;29438;50.664;10.098;2022-11-15T08:32:36;7.47;;;3.50;;
43807;SDS011;29438;50.664;10.098;2022-11-15T08:35:01;7.88;;;3.30;;
43807;SDS011;29438;50.664;10.098;2022-11-15T08:37:27;6.25;;;3.25;;
43807;SDS011;29438;50.664;10.098;2022-11-15T08:39:52;6.50;;;3.40;;
43807;SDS011;29438;50.664;10.098;2022-11-15T08:42:18;6.68;;;3.47;;
43807;SDS011;29438;50.664;10.098;2022-11-15T08:44:43;8.52;;;3.60;;
43807;SDS011;29438;50.664;10.098;2022-11-15T08:47:12;7.30;;;3.50;;
43807;SDS011;29438;50.664;10.098;2022-11-15T08:49:38;7.13;;;3.13;;
43807;SDS011;29438;50.664;10.098;2022-11-15T08:52:04;6.88;;;3.25;;
43807;SDS011;29438;50.664;10.098;2022-11-15T08:54:29;6.38;;;3.03;;
43807;SDS011;29438;50.664;10.098;2022-11-15T08:56:55;5.97;;;3.30;;
43807;SDS011;29438;50.664;10.098;2022-11-15T08:59:21;6.30;;;2.85;;
43807;SDS011;29438;50.664;10.098;2022-11-15T09:01:47;6.53;;;3.30;;
43807;SDS011;29438;50.664;10.098;2022-11-15T09:04:13;7.47;;;3.22;;
43807;SDS011;29438;50.664;10.098;2022-11-15T09:06:38;5.90;;;3.05;;
43807;SDS011;29438;50.664;10.098;2022-11-15T09:09:04;5.85;;;2.95;;
43807;SDS011;29438;50.664;10.098;2022-11-15T09:11:29;5.18;;;3.10;;
43807;SDS011;29438;50.664;10.098;2022-11-15T09:13:55;6.35;;;3.03;;
43807;SDS011;29438;50.664;10.098;2022-11-15T09:16:21;7.35;;;3.38;;
43807;SDS011;29438;50.664;10.098;2022-11-15T09:18:46;7.22;;;3.15;;
43807;SDS011;29438;50.664;10.098;2022-11-15T09:21:12;5.93;;;2.88;;
43807;SDS011;29438;50.664;10.098;2022-11-15T09:23:38;5.57;;;3.10;;
43807;SDS011;29438;50.664;10.098;2022-11-15T09:26:04;4.80;;;2.50;;
43807;SDS011;29438;50.664;10.098;2022-11-15T09:28:30;5.07;;;2.75;;
43807;SDS011;29438;50.664;10.098;2022-11-15T09:30:58;5.40;;;2.97;;
43807;SDS011;29438;50.664;10.098;2022-11-15T09:33:24;7.00;;;3.08;;
43807;SDS011;29438;50.664;10.098;2022-11-15T09:35:50;6.20;;;2.92;;
43807;SDS011;29438;50.664;10.098;2022-11-15T09:38:16;5.80;;;2.60;;
43807;SDS011;29438;50.664;10.098;2022-11-15T09:40:42;7.97;;;3.15;;
43807;SDS011;29438;50.664;10.098;2022-11-15T09:46:17;5.18;;;2.88;;
43807;SDS011;29438;50.664;10.098;2022-11-15T09:49:06;6.55;;;2.80;;
43807;SDS011;29438;50.664;10.098;2022-11-15T09:51:38;7.30;;;2.85;;
43807;SDS011;29438;50.664;10.098;2022-11-15T09:57:05;6.28;;;2.95;;
43807;SDS011;29438;50.664;10.098;2022-11-15T10:00:02;5.93;;;3.10;;
43807;SDS011;29438;50.664;10.098;2022-11-15T10:05:04;5.85;;;3.13;;
43807;SDS011;29438;50.664;10.098;2022-11-15T10:12:48;5.83;;;3.00;;
43807;SDS011;29438;50.664;10.098;2022-11-15T10:15:16;5.55;;;2.78;;
43807;SDS011;29438;50.664;10.098;2022-11-15T10:20:21;6.18;;;3.00;;
43807;SDS011;29438;50.664;10.098;2022-11-15T10:22:58;5.82;;;2.67;;
43807;SDS011;29438;50.664;10.098;2022-11-15T10:25:29;6.75;;;2.80;;
43807;SDS011;29438;50.664;10.098;2022-11-15T10:31:00;4.65;;;2.22;;
43807;SDS011;29438;50.664;10.098;2022-11-15T10:33:29;7.90;;;3.22;;
43807;SDS011;29438;50.664;10.098;2022-11-15T10:36:22;5.35;;;2.65;;
43807;SDS011;29438;50.664;10.098;2022-11-15T10:41:15;6.05;;;3.00;;
43807;SDS011;29438;50.664;10.098;2022-11-15T10:44:01;6.00;;;2.85;;
43807;SDS011;29438;50.664;10.098;2022-11-15T10:46:43;5.95;;;2.58;;
43807;SDS011;29438;50.664;10.098;2022-11-15T10:49:19;5.55;;;2.65;;
43807;SDS011;29438;50.664;10.098;2022-11-15T10:54:23;6.00;;;2.30;;
43807;SDS011;29438;50.664;10.098;2022-11-15T10:56:54;6.20;;;2.55;;
43807;SDS011;29438;50.664;10.098;2022-11-15T10:59:26;5.18;;;2.33;;
43807;SDS011;29438;50.664;10.098;2022-11-15T11:01:55;6.60;;;2.80;;
43807;SDS011;29438;50.664;10.098;2022-11-15T11:04:21;7.68;;;2.88;;
43807;SDS011;29438;50.664;10.098;2022-11-15T11:06:49;5.50;;;2.75;;
43807;SDS011;29438;50.664;10.098;2022-11-15T11:09:25;5.25;;;2.45;;
43807;SDS011;29438;50.664;10.098;2022-11-15T11:11:57;6.82;;;2.83;;
43807;SDS011;29438;50.664;10.098;2022-11-15T11:14:24;6.20;;;2.70;;
43807;SDS011;29438;50.664;10.098;2022-11-15T11:17:01;5.22;;;2.80;;
43807;SDS011;29438;50.664;10.098;2022-11-15T11:22:30;4.82;;;2.53;;
43807;SDS011;29438;50.664;10.098;2022-11-15T11:33:33;4.68;;;2.10;;
43807;SDS011;29438;50.664;10.098;2022-11-15T11:36:11;4.85;;;2.25;;
43807;SDS011;29438;50.664;10.098;2022-11-15T11:38:58;4.88;;;2.38;;
43807;SDS011;29438;50.664;10.098;2022-11-15T11:41:56;3.95;;;2.08;;
43807;SDS011;29438;50.664;10.098;2022-11-15T11:49:52;4.82;;;2.08;;
43807;SDS011;29438;50.664;10.098;2022-11-15T11:52:23;5.72;;;2.63;;
43807;SDS011;29438;50.664;10.098;2022-11-15T11:57:41;6.15;;;2.40;;
43807;SDS011;29438;50.664;10.098;2022-11-15T12:00:24;3.95;;;2.20;;
43807;SDS011;29438;50.664;10.098;2022-11-15T12:05:44;4.25;;;2.08;;
43807;SDS011;29438;50.664;10.098;2022-11-15T12:08:20;4.13;;;2.17;;
43807;SDS011;29438;50.664;10.098;2022-11-15T12:11:13;4.40;;;1.90;;
43807;SDS011;29438;50.664;10.098;2022-11-15T12:13:42;3.65;;;2.00;;
43807;SDS011;29438;50.664;10.098;2022-11-15T12:16:11;5.28;;;1.88;;
43807;SDS011;29438;50.664;10.098;2022-11-15T12:18:38;4.80;;;1.75;;
43807;SDS011;29438;50.664;10.098;2022-11-15T12:24:14;4.53;;;1.80;;
43807;SDS011;29438;50.664;10.098;2022-11-15T12:26:57;4.15;;;1.63;;
43807;SDS011;29438;50.664;10.098;2022-11-15T12:29:36;4.13;;;1.70;;
43807;SDS011;29438;50.664;10.098;2022-11-15T12:32:03;4.10;;;1.88;;
43807;SDS011;29438;50.664;10.098;2022-11-15T12:34:36;3.80;;;1.88;;
43807;SDS011;29438;50.664;10.098;2022-11-15T12:40:21;4.05;;;1.83;;
43807;SDS011;29438;50.664;10.098;2022-11-15T12:45:27;4.90;;;2.13;;
43807;SDS011;29438;50.664;10.098;2022-11-15T13:06:51;6.03;;;2.40;;
43807;SDS011;29438;50.664;10.098;2022-11-15T13:12:02;6.03;;;2.72;;
43807;SDS011;29438;50.664;10.098;2022-11-15T13:25:20;7.32;;;2.70;;
43807;SDS011;29438;50.664;10.098;2022-11-15T13:31:20;5.70;;;2.35;;
43807;SDS011;29438;50.664;10.098;2022-11-15T13:34:26;7.03;;;3.58;;
43807;SDS011;29438;50.664;10.098;2022-11-15T13:36:54;4.75;;;2.22;;
43807;SDS011;29438;50.664;10.098;2022-11-15T13:39:31;5.95;;;2.75;;
43807;SDS011;29438;50.664;10.098;2022-11-15T13:41:58;7.32;;;3.35;;
43807;SDS011;29438;50.664;10.098;2022-11-15T13:44:25;6.03;;;2.50;;
43807;SDS011;29438;50.664;10.098;2022-11-15T13:47:09;7.63;;;2.60;;
43807;SDS011;29438;50.664;10.098;2022-11-15T13:49:39;8.00;;;2.75;;
43807;SDS011;29438;50.664;10.098;2022-11-15T13:52:10;4.13;;;2.10;;
43807;SDS011;29438;50.664;10.098;2022-11-15T13:57:26;5.63;;;2.20;;
43807;SDS011;29438;50.664;10.098;2022-11-15T14:00:04;7.28;;;2.80;;
43807;SDS011;29438;50.664;10.098;2022-11-15T14:02:32;6.93;;;3.05;;
43807;SDS011;29438;50.664;10.098;2022-11-15T14:05:19;5.43;;;2.83;;
43807;SDS011;29438;50.664;10.098;2022-11-15T14:07:56;5.72;;;2.40;;
43807;SDS011;29438;50.664;10.098;2022-11-15T14:10:31;4.20;;;2.00;;
43807;SDS011;29438;50.664;10.098;2022-11-15T14:12:59;6.90;;;2.28;;
43807;SDS011;29438;50.664;10.098;2022-11-15T14:17:55;4.22;;;2.00;;
43807;SDS011;29438;50.664;10.098;2022-11-15T14:20:31;4.95;;;2.58;;
43807;SDS011;29438;50.664;10.098;2022-11-15T14:23:03;6.40;;;2.15;;
43807;SDS011;29438;50.664;10.098;2022-11-15T14:25:53;4.88;;;2.35;;
43807;SDS011;29438;50.664;10.098;2022-11-15T14:30:49;6.45;;;2.55;;
43807;SDS011;29438;50.664;10.098;2022-11-15T14:35:53;5.82;;;2.42;;
43807;SDS011;29438;50.664;10.098;2022-11-15T14:38:21;5.65;;;2.50;;
43807;SDS011;29438;50.664;10.098;2022-11-15T14:40:46;5.22;;;2.35;;
43807;SDS011;29438;50.664;10.098;2022-11-15T14:43:12;6.35;;;2.50;;
43807;SDS011;29438;50.664;10.098;2022-11-15T14:45:38;5.32;;;2.25;;
43807;SDS011;29438;50.664;10.098;2022-11-15T14:48:05;5.55;;;2.90;;
43807;SDS011;29438;50.664;10.098;2022-11-15T14:50:31;6.57;;;2.50;;
43807;SDS011;29438;50.664;10.098;2022-11-15T14:52:57;6.95;;;2.70;;
43807;SDS011;29438;50.664;10.098;2022-11-15T14:55:27;5.18;;;2.17;;
43807;SDS011;29438;50.664;10.098;2022-11-15T14:58:04;5.15;;;2.35;;
43807;SDS011;29438;50.664;10.098;2022-11-15T15:00:33;5.75;;;2.65;;
43807;SDS011;29438;50.664;10.098;2022-11-15T15:03:03;5.45;;;3.08;;
43807;SDS011;29438;50.664;10.098;2022-11-15T15:05:40;7.18;;;3.10;;
43807;SDS011;29438;50.664;10.098;2022-11-15T15:08:07;6.28;;;3.03;;
43807;SDS011;29438;50.664;10.098;2022-11-15T15:10:37;7.97;;;2.97;;
43807;SDS011;29438;50.664;10.098;2022-11-15T15:13:14;6.75;;;3.10;;
43807;SDS011;29438;50.664;10.098;2022-11-15T15:15:40;5.88;;;2.65;;
43807;SDS011;29438;50.664;10.098;2022-11-15T15:18:06;6.55;;;2.63;;
43807;SDS011;29438;50.664;10.098;2022-11-15T15:20:34;5.68;;;2.63;;
43807;SDS011;29438;50.664;10.098;2022-11-15T15:23:00;5.05;;;2.80;;
43807;SDS011;29438;50.664;10.098;2022-11-15T15:25:27;6.70;;;2.80;;
43807;SDS011;29438;50.664;10.098;2022-11-15T15:27:54;7.82;;;3.10;;
43807;SDS011;29438;50.664;10.098;2022-11-15T15:30:21;11.25;;;4.03;;
43807;SDS011;29438;50.664;10.098;2022-11-15T15:32:47;8.88;;;2.95;;
43807;SDS011;29438;50.664;10.098;2022-11-15T15:35:14;5.40;;;2.75;;
43807;SDS011;29438;50.664;10.098;2022-11-15T15:37:40;4.25;;;2.30;;
43807;SDS011;29438;50.664;10.098;2022-11-15T15:40:10;7.05;;;2.47;;
43807;SDS011;29438;50.664;10.098;2022-11-15T15:42:39;7.13;;;3.08;;
43807;SDS011;29438;50.664;10.098;2022-11-15T15:45:04;4.93;;;2.65;;
43807;SDS011;29438;50.664;10.098;2022-11-15T15:47:30;6.55;;;3.10;;
43807;SDS011;29438;50.664;10.098;2022-11-15T15:49:56;6.82;;;3.08;;
43807;SDS011;29438;50.664;10.098;2022-11-15T15:52:21;7.18;;;3.28;;
43807;SDS011;29438;50.664;10.098;2022-11-15T15:54:47;5.70;;;2.70;;
43807;SDS011;29438;50.664;10.098;2022-11-15T15:57:13;9.75;;;3.58;;
43807;SDS011;29438;50.664;10.098;2022-11-15T15:59:39;7.75;;;3.80;;
43807;SDS011;29438;50.664;10.098;2022-11-15T16:02:05;7.70;;;3.63;;
43807;SDS011;29438;50.664;10.098;2022-11-15T16:04:31;6.82;;;3.05;;
43807;SDS011;29438;50.664;10.098;2022-11-15T16:07:00;9.00;;;4.03;;
43807;SDS011;29438;50.664;10.098;2022-11-15T16:09:27;7.85;;;3.88;;
43807;SDS011;29438;50.664;10.098;2022-11-15T16:14:37;8.82;;;4.63;;
43807;SDS011;29438;50.664;10.098;2022-11-15T16:17:02;9.38;;;4.90;;
43807;SDS011;29438;50.664;10.098;2022-11-15T16:19:28;8.82;;;4.65;;
43807;SDS011;29438;50.664;10.098;2022-11-15T16:21:54;8.63;;;4.10;;
43807;SDS011;29438;50.664;10.098;2022-11-15T16:24:20;9.43;;;4.47;;
43807;SDS011;29438;50.664;10.098;2022-11-15T16:26:46;6.28;;;2.90;;
43807;SDS011;29438;50.664;10.098;2022-11-15T16:29:13;7.75;;;3.20;;
43807;SDS011;29438;50.664;10.098;2022-11-15T16:31:38;6.45;;;3.22;;
43807;SDS011;29438;50.664;10.098;2022-11-15T16:34:04;8.90;;;3.72;;
43807;SDS011;29438;50.664;10.098;2022-11-15T16:36:32;17.05;;;7.25;;
43807;SDS011;29438;50.664;10.098;2022-11-15T16:38:59;14.93;;;6.22;;
43807;SDS011;29438;50.664;10.098;2022-11-15T16:41:28;11.13;;;5.65;;
43807;SDS011;29438;50.664;10.098;2022-11-15T16:43:53;10.40;;;5.18;;
43807;SDS011;29438;50.664;10.098;2022-11-15T16:46:20;7.75;;;3.97;;
43807;SDS011;29438;50.664;10.098;2022-11-15T16:48:50;6.85;;;3.60;;
43807;SDS011;29438;50.664;10.098;2022-11-15T16:51:16;7.13;;;3.10;;
43807;SDS011;29438;50.664;10.098;2022-11-15T16:53:42;8.57;;;3.95;;
43807;SDS011;29438;50.664;10.098;2022-11-15T16:56:18;10.23;;;4.85;;
43807;SDS011;29438;50.664;10.098;2022-11-15T16:58:53;7.60;;;3.78;;
43807;SDS011;29438;50.664;10.098;2022-11-15T17:01:23;9.57;;;4.85;;
43807;SDS011;29438;50.664;10.098;2022-11-15T17:03:51;9.57;;;3.60;;
43807;SDS011;29438;50.664;10.098;2022-11-15T17:06:17;8.98;;;4.13;;
43807;SDS011;29438;50.664;10.098;2022-11-15T17:08:46;7.35;;;3.75;;